Time;durP1;ratioP1;P1;durP2;ratioP2;P2;SDS_P1;SDS_P2;PMS_P1;PMS_P2;Temp;Humidity;BMP_temperature;BMP_pressure;BME280_temperature;BME280_humidity;BME280_pressure;Samples;Min_cycle;Max_cycle;Signal;HPM_P1;HPM_P2
2022/12/02 00:01:12;;;;;;;;;;;;;;;;;;;;;
2022/12/02 00:10:36;;;;;;;;;31.50;25.75;;;;;5.05;79.08;101473.06;4871558;29;44725;-90
2022/12/02 00:13:28;;;;;;;;;40.50;36.00;;;;;3.56;78.54;101213.03;4874375;29;45581;-92
2022/12/02 00:15:59;;;;;;;;;36.00;32.00;;;;;3.73;78.59;101252.59;4884824;29;45339;-91
2022/12/02 00:18:37;;;;;;;;;;;;;;;;;;;;;
2022/12/02 00:21:04;;;;;;;;;36.00;31.00;;;;;5.66;79.12;101582.44;4885096;29;71735;-90
2022/12/02 00:23:33;;;;;;;;;40.75;35.50;;;;;4.66;78.59;101406.06;4896467;29;45357;-93
2022/12/02 00:26:17;;;;;;;;;;;;;;;;;;;;;
2022/12/02 00:28:45;;;;;;;;;40.00;30.50;;;;;4.17;79.57;101318.78;4884424;29;75845;-91
2022/12/02 00:31:12;;;;;;;;;40.00;35.00;;;;;5.65;79.59;101578.06;4887635;29;45463;-91
2022/12/02 00:33:42;;;;;;;;;43.00;36.00;;;;;4.76;79.47;101412.31;4876677;29;44821;-91
2022/12/02 00:36:17;;;;;;;;;39.25;33.25;;;;;5.23;79.30;101487.34;4887352;29;45533;-91
2022/12/02 00:38:49;;;;;;;;;41.75;35.00;;;;;5.24;78.76;101470.75;4861663;29;47244;-91
2022/12/02 00:41:26;;;;;;;;;48.75;35.25;;;;;3.92;78.52;101268.63;4868769;29;45495;-92
2022/12/02 00:46:58;;;;;;;;;37.00;32.25;;;;;4.82;78.59;101411.56;4971194;28;45311;-91
2022/12/02 00:49:48;;;;;;;;;44.50;36.50;;;;;5.61;78.99;101569.25;5009356;28;46749;-91
2022/12/02 00:52:35;;;;;;;;;51.00;40.75;;;;;4.09;78.91;101288.09;5027937;28;44725;-92
2022/12/02 00:55:13;;;;;;;;;50.00;39.00;;;;;5.18;79.55;101478.50;5010005;28;45342;-91
2022/12/02 00:57:48;;;;;;;;;48.00;37.25;;;;;4.46;79.69;101361.16;5011114;28;45417;-91
2022/12/02 01:00:21;;;;;;;;;37.75;34.75;;;;;5.37;79.05;101512.03;5036076;28;45180;-91
2022/12/02 01:02:58;;;;;;;;;54.25;40.00;;;;;4.91;79.31;101436.16;5029878;28;45398;-92
2022/12/02 01:05:38;;;;;;;;;35.75;33.25;;;;;5.24;79.63;101494.34;4990781;28;45401;-91
2022/12/02 01:08:24;;;;;;;;;;;;;;;;;;;;;
2022/12/02 01:11:20;;;;;;;;;34.75;32.25;;;;;4.66;79.90;101392.97;5039080;28;74010;-92
2022/12/02 01:16:51;;;;;;;;;28.25;16.50;;;;;4.27;79.61;101312.84;5010401;28;45355;-90
2022/12/02 01:19:17;;;;;;;;;44.00;35.25;;;;;5.54;79.71;101533.28;5003440;28;45520;-91
2022/12/02 01:21:43;;;;;;;;;40.75;37.25;;;;;4.12;79.61;101289.91;5027114;28;46823;-92
2022/12/02 01:24:11;;;;;;;;;40.00;35.25;;;;;5.15;79.66;101454.03;5028243;28;45309;-92
2022/12/02 01:26:43;;;;;;;;;43.25;36.25;;;;;3.94;79.63;101272.13;5009178;28;45389;-91
2022/12/02 01:33:15;;;;;;;;;42.25;35.75;;;;;5.55;80.11;101515.81;5022112;28;45182;-92
2022/12/02 01:35:43;;;;;;;;;44.50;37.25;;;;;5.37;79.05;101484.94;5011706;28;45621;-92
2022/12/02 01:38:12;;;;;;;;;42.00;38.00;;;;;5.56;79.57;101535.94;5010336;28;45273;-90
2022/12/02 01:40:37;;;;;;;;;32.50;25.00;;;;;4.47;79.16;101354.22;5010001;28;45110;-91
2022/12/02 01:43:03;;;;;;;;;37.25;30.75;;;;;5.56;79.60;101525.44;5007596;28;47227;-92
2022/12/02 01:45:30;;;;;;;;;42.75;36.50;;;;;5.38;79.89;101494.59;5008091;28;45373;-91
2022/12/02 01:48:22;;;;;;;;;47.00;38.25;;;;;4.08;79.38;101275.91;5007656;28;45333;-92
2022/12/02 01:50:58;;;;;;;;;36.75;31.25;;;;;4.39;79.52;101331.38;5004693;28;45481;-92
2022/12/02 01:53:24;;;;;;;;;41.25;36.50;;;;;4.09;79.42;101288.09;5008317;28;47220;-91
2022/12/02 01:55:51;;;;;;;;;49.00;37.00;;;;;4.36;79.51;101333.94;5004512;28;45366;-92
2022/12/02 01:58:22;;;;;;;;;50.25;36.75;;;;;4.60;79.73;101374.50;5025935;28;45304;-92
2022/12/02 02:00:48;;;;;;;;;37.25;31.25;;;;;4.86;79.46;101411.63;5010590;28;45380;-92
2022/12/02 02:03:16;;;;;;;;;49.00;37.00;;;;;4.31;79.27;101325.13;5010879;28;47261;-92
2022/12/02 02:06:03;;;;;;;;;42.25;35.50;;;;;4.32;80.17;101337.38;5037558;28;45293;-91
2022/12/02 02:08:28;;;;;;;;;44.25;34.00;;;;;5.20;80.01;101471.56;5033836;28;44807;-91
2022/12/02 02:11:00;;;;;;;;;48.25;38.00;;;;;5.19;79.96;101461.94;5027999;28;45306;-91
2022/12/02 02:13:38;;;;;;;;;47.75;37.75;;;;;4.50;79.94;101367.34;5026131;28;47333;-90
2022/12/02 02:16:06;;;;;;;;;39.50;32.50;;;;;4.23;79.38;101308.41;5018789;28;45987;-91
2022/12/02 02:18:35;;;;;;;;;38.50;33.75;;;;;4.81;80.13;101405.41;5021215;28;45496;-91
2022/12/02 02:21:09;;;;;;;;;55.50;39.00;;;;;5.29;79.67;101487.44;5027703;28;45675;-92
2022/12/02 02:23:43;;;;;;;;;42.00;34.00;;;;;4.45;79.84;101328.88;5031768;28;46370;-91
2022/12/02 02:26:11;;;;;;;;;37.00;32.00;;;;;4.94;80.15;101406.50;5025720;28;45337;-91
2022/12/02 02:28:37;;;;;;;;;40.25;35.50;;;;;4.74;80.06;101366.91;5006014;28;45274;-91
2022/12/02 02:31:03;;;;;;;;;42.50;35.00;;;;;4.12;79.41;101260.25;5025220;28;45364;-91
2022/12/02 02:33:34;;;;;;;;;50.75;37.50;;;;;4.43;79.64;101317.50;5025228;28;47258;-92
2022/12/02 02:36:02;;;;;;;;;48.75;37.00;;;;;5.61;79.40;101514.16;5026898;28;45532;-90
2022/12/02 02:38:29;;;;;;;;;29.00;27.75;;;;;4.51;79.81;101306.25;5024077;28;45385;-92
2022/12/02 02:40:57;;;;;;;;;45.50;38.00;;;;;4.61;79.84;101329.13;5036253;28;45274;-91
2022/12/02 02:43:26;;;;;;;;;41.50;34.75;;;;;5.28;79.67;101452.50;5023465;28;47329;-91
2022/12/02 02:45:57;;;;;;;;;44.50;37.50;;;;;5.62;79.22;101512.44;5047632;28;45295;-91
2022/12/02 02:48:27;;;;;;;;;47.50;35.50;;;;;5.61;79.38;101506.28;5025087;28;45475;-91
2022/12/02 02:50:55;;;;;;;;;40.75;35.00;;;;;5.60;79.67;101499.31;5030542;28;44882;-91
2022/12/02 02:53:27;;;;;;;;;41.75;33.75;;;;;4.69;79.39;101343.25;5046766;28;46597;-90
2022/12/02 02:55:56;;;;;;;;;44.00;36.75;;;;;4.30;79.40;101289.34;5024345;28;45218;-90
2022/12/02 02:58:27;;;;;;;;;47.25;39.00;;;;;3.98;79.61;101211.19;5013647;28;45439;-90
2022/12/02 03:01:01;;;;;;;;;45.00;37.75;;;;;4.07;79.53;101220.94;5022427;28;44849;-91
2022/12/02 03:03:31;;;;;;;;;42.25;37.25;;;;;5.18;79.32;101410.34;5025691;28;46888;-91
2022/12/02 03:06:02;;;;;;;;;49.00;37.75;;;;;5.19;79.93;101418.25;5028821;28;45496;-91
2022/12/02 03:08:48;;;;;;;;;47.00;38.50;;;;;4.17;79.17;101235.03;5024778;28;45299;-93
2022/12/02 03:11:32;;;;;;;;;41.00;29.75;;;;;4.13;79.61;101243.69;4997358;28;45220;-94
2022/12/02 03:14:14;;;;;;;;;48.00;38.50;;;;;4.71;79.50;101320.56;5022607;28;45222;-94
2022/12/02 03:23:38;;;;;;;;;46.00;39.75;;;;;3.55;79.02;101134.59;5043458;28;44718;-93
2022/12/02 03:26:06;;;;;;;;;46.25;35.75;;;;;4.79;79.39;101344.25;5010123;28;45512;-94
2022/12/02 03:28:53;;;;;;;;;;;;;;;;;;;;;
2022/12/02 03:32:11;;;;;;;;;;;;;;;;;;;;;
2022/12/02 03:38:37;;;;;;;;;49.25;39.75;;;;;5.51;79.16;101486.94;5042358;28;45088;-94
2022/12/02 03:41:29;;;;;;;;;48.00;36.00;;;;;5.48;79.94;101463.28;4998653;28;44862;-95
2022/12/02 03:48:20;;;;;;;;;28.50;26.75;;;;;4.41;79.26;101293.00;5046230;28;44734;-93
2022/12/02 03:51:11;;;;;;;;;49.00;42.00;;;;;3.71;79.35;101162.75;5042656;28;45674;-95
2022/12/02 04:06:35;;;;;;;;;40.75;37.25;;;;;4.81;79.47;101332.06;5038867;28;44596;-94
2022/12/02 04:09:45;;;;;;;;;;;;;;;;;;;;;
2022/12/02 04:12:18;;;;;;;;;41.00;31.75;;;;;5.18;79.47;101399.88;5025472;28;69752;-95
2022/12/02 04:15:24;;;;;;;;;45.25;35.75;;;;;5.12;79.72;101374.47;5027337;28;45671;-94
2022/12/02 04:28:09;;;;;;;;;45.50;37.00;;;;;5.53;79.28;101413.53;5025135;28;45265;-91
2022/12/02 04:30:35;;;;;;;;;43.75;38.00;;;;;4.78;79.17;101285.78;5004426;28;45351;-92
2022/12/02 04:33:25;;;;;;;;;41.00;35.50;;;;;4.40;79.02;101223.22;5004526;28;45323;-92
2022/12/02 04:35:54;;;;;;;;;50.50;41.50;;;;;5.33;79.36;101390.50;5006456;28;45341;-91
2022/12/02 04:38:19;;;;;;;;;50.00;38.75;;;;;4.56;79.54;101262.72;5003423;28;47829;-89
2022/12/02 04:40:45;;;;;;;;;41.50;34.75;;;;;5.52;79.68;101423.09;5004275;28;45506;-90
2022/12/02 04:43:11;;;;;;;;;45.25;39.00;;;;;5.51;79.71;101439.72;5005419;28;45246;-91
2022/12/02 04:45:36;;;;;;;;;39.50;32.25;;;;;5.10;78.92;101353.50;5007278;28;45520;-91
2022/12/02 04:48:05;;;;;;;;;42.00;35.75;;;;;4.12;79.12;101200.06;5006860;28;47170;-92
2022/12/02 04:50:30;;;;;;;;;43.50;35.25;;;;;4.33;79.38;101221.34;5008943;28;45516;-92
2022/12/02 04:53:04;;;;;;;;;43.00;32.50;;;;;4.00;79.23;101172.84;5015462;28;45510;-89
2022/12/02 04:55:48;;;;;;;;;46.75;37.75;;;;;5.09;79.77;101353.47;4995123;28;45330;-90
2022/12/02 04:58:13;;;;;;;;;43.50;32.75;;;;;4.05;79.64;101168.56;5008604;28;46793;-91
2022/12/02 05:00:39;;;;;;;;;47.00;37.00;;;;;4.34;78.87;101219.59;4993547;28;45591;-91
2022/12/02 05:03:05;;;;;;;;;48.25;38.75;;;;;4.01;78.88;101158.91;4984325;28;45410;-90
2022/12/02 05:05:33;;;;;;;;;46.25;31.50;;;;;5.52;79.22;101424.84;4985740;28;45345;-92
2022/12/02 05:08:10;;;;;;;;;;;;;;;;;;;;;
2022/12/02 05:10:39;;;;;;;;;40.50;35.00;;;;;5.07;79.32;101337.72;5023405;28;71443;-91
2022/12/02 05:13:05;;;;;;;;;36.00;30.75;;;;;5.48;79.17;101423.94;5005982;28;45436;-92
2022/12/02 05:15:32;;;;;;;;;49.50;37.00;;;;;4.43;79.15;101240.69;5005721;28;45591;-92
2022/12/02 05:17:58;;;;;;;;;38.00;28.75;;;;;3.98;79.91;101145.78;5005382;28;46936;-92
2022/12/02 05:20:26;;;;;;;;;54.50;37.25;;;;;5.23;79.18;101356.28;5014406;28;45470;-90
2022/12/02 05:22:54;;;;;;;;;47.25;39.00;;;;;5.49;79.97;101415.19;5019089;28;44698;-90
2022/12/02 05:25:25;;;;;;;;;57.00;41.25;;;;;5.09;79.20;101322.88;5014564;28;45559;-91
2022/12/02 05:27:56;;;;;;;;;44.25;35.75;;;;;5.08;79.46;101330.72;5019136;28;47043;-89
2022/12/02 05:30:26;;;;;;;;;51.25;37.25;;;;;3.55;79.41;101084.91;5006172;28;45397;-91
2022/12/02 05:32:52;;;;;;;;;48.00;39.50;;;;;4.56;79.64;101242.66;5005244;28;45347;-91
2022/12/02 05:35:25;;;;;;;;;49.50;37.00;;;;;4.53;78.78;101224.28;5006631;28;45416;-90
2022/12/02 05:37:56;;;;;;;;;44.25;37.00;;;;;4.41;79.62;101204.00;5010383;28;46910;-91
2022/12/02 05:40:21;;;;;;;;;54.00;42.00;;;;;4.09;79.81;101151.19;5028956;28;45441;-90
2022/12/02 05:42:48;;;;;;;;;44.50;36.50;;;;;3.68;79.17;101062.47;5026169;28;45218;-90
2022/12/02 05:45:24;;;;;;;;;53.00;41.00;;;;;4.50;79.46;101215.50;5006075;28;45282;-90
2022/12/02 05:47:59;;;;;;;;;49.00;37.50;;;;;5.52;79.48;101375.91;5005870;28;46827;-91
2022/12/02 05:50:27;;;;;;;;;44.00;37.75;;;;;5.14;79.41;101308.09;5014168;28;45072;-90
2022/12/02 05:52:55;;;;;;;;;40.50;33.25;;;;;5.50;79.48;101382.88;5014773;28;45419;-92
2022/12/02 05:55:41;;;;;;;;;55.00;42.50;;;;;5.13;79.99;101293.25;5003735;28;45350;-91
2022/12/02 05:58:11;;;;;;;;;47.00;40.50;;;;;3.77;79.77;101056.53;4997151;28;47372;-91
2022/12/02 06:00:49;;;;;;;;;;;;;;;;;;;;;
2022/12/02 06:03:20;;;;;;;;;34.00;29.75;;;;;4.90;79.95;101261.47;5021352;28;67635;-91
2022/12/02 06:05:52;;;;;;;;;42.50;36.75;;;;;3.91;79.69;101091.59;5004861;28;45267;-91
2022/12/02 06:08:26;;;;;;;;;51.75;39.75;;;;;4.37;78.80;101168.19;5022298;28;46540;-91
2022/12/02 06:11:00;;;;;;;;;51.75;40.25;;;;;4.18;79.09;101119.06;5025668;28;45544;-91
2022/12/02 06:13:27;;;;;;;;;47.25;36.25;;;;;4.30;80.00;101154.97;5023014;28;45358;-91
2022/12/02 06:15:58;;;;;;;;;57.00;40.50;;;;;5.56;79.32;101360.22;5042522;28;45316;-90
2022/12/02 06:21:30;;;;;;;;;57.00;40.00;;;;;5.58;78.90;101375.13;5039363;28;44762;-90
2022/12/02 06:23:57;;;;;;;;;57.75;45.00;;;;;4.56;79.04;101178.94;5031265;28;45405;-90
2022/12/02 06:26:25;;;;;;;;;53.00;40.50;;;;;4.04;78.86;101085.72;5027472;28;45596;-91
2022/12/02 06:29:21;;;;;;;;;45.25;37.25;;;;;5.56;79.71;101353.25;5024969;28;47480;-91
2022/12/02 06:31:55;;;;;;;;;50.50;37.25;;;;;4.53;79.72;101184.13;5008895;28;45766;-91
2022/12/02 06:34:42;;;;;;;;;59.50;41.75;;;;;4.70;79.34;101221.91;5026279;28;45249;-92
2022/12/02 06:37:43;;;;;;;;;50.25;40.50;;;;;4.16;79.62;101136.44;5025357;28;45607;-91
2022/12/02 06:40:28;;;;;;;;;38.75;37.75;;;;;5.01;79.60;101256.41;5022863;28;46861;-91
2022/12/02 06:43:00;;;;;;;;;53.25;42.00;;;;;4.45;79.63;101161.31;5021256;28;45367;-92
2022/12/02 06:46:21;;;;;;;;;58.50;43.75;;;;;4.35;79.46;101159.44;5024555;28;45469;-95
2022/12/02 06:52:26;;;;;;;;;39.25;30.75;;;;;3.85;79.50;101052.28;4960852;28;45033;-93
2022/12/02 06:54:58;;;;;;;;;44.50;36.00;;;;;4.44;80.01;101156.06;4935901;28;44687;-93
2022/12/02 06:57:36;;;;;;;;;40.00;34.25;;;;;5.12;79.73;101290.63;4942418;28;44856;-95
2022/12/02 07:07:00;;;;;;;;;48.25;42.25;;;;;4.48;79.96;101164.84;4954170;28;44790;-96
2022/12/02 07:13:10;;;;;;;;;41.25;35.25;;;;;5.11;79.55;101287.09;4940447;28;44861;-94
2022/12/02 07:15:36;;;;;;;;;60.00;44.00;;;;;4.65;79.15;101215.72;4894928;29;45403;-92
2022/12/02 07:18:16;;;;;;;;;58.00;43.25;;;;;3.67;79.41;101038.03;4930044;28;45319;-93
2022/12/02 07:20:44;;;;;;;;;46.25;40.00;;;;;5.46;79.24;101351.34;4916363;28;44824;-93
2022/12/02 07:23:26;;;;;;;;;49.75;38.75;;;;;4.64;79.08;101198.25;4917021;28;45440;-92
2022/12/02 07:25:59;;;;;;;;;54.50;40.25;;;;;3.69;79.59;101054.66;4992753;28;47401;-93
2022/12/02 07:28:39;;;;;;;;;44.25;37.50;;;;;3.86;80.08;101091.53;5050762;28;45242;-93
2022/12/02 07:31:24;;;;;;;;;50.75;40.00;;;;;4.22;79.54;101165.31;5008597;28;45430;-93
2022/12/02 07:33:50;;;;;;;;;56.75;42.25;;;;;5.02;79.95;101293.97;5007807;28;45479;-92
2022/12/02 07:36:19;;;;;;;;;50.25;40.00;;;;;4.98;80.00;101287.81;5009924;28;47061;-90
2022/12/02 07:38:51;;;;;;;;;58.50;42.25;;;;;3.43;79.51;101007.19;5019758;28;44966;-93
2022/12/02 07:41:18;;;;;;;;;56.50;40.25;;;;;4.29;80.05;101146.25;5030281;28;45301;-91
2022/12/02 07:43:55;;;;;;;;;52.25;37.75;;;;;5.39;80.46;101332.06;5007163;28;45616;-92
2022/12/02 07:46:37;;;;;;;;;56.25;41.00;;;;;5.38;80.23;101335.53;5004674;28;46341;-91
2022/12/02 07:49:04;;;;;;;;;56.00;41.00;;;;;4.25;79.87;101170.59;5007080;28;45300;-91
2022/12/02 07:51:29;;;;;;;;;59.75;44.50;;;;;4.03;79.86;101115.34;5009548;28;45509;-92
2022/12/02 07:53:55;;;;;;;;;57.50;43.50;;;;;4.63;80.07;101226.19;5005466;28;45199;-93
2022/12/02 07:56:24;;;;;;;;;56.00;41.00;;;;;3.66;80.77;101067.69;5008537;28;47083;-92
2022/12/02 07:58:51;;;;;;;;;47.75;38.75;;;;;5.00;80.35;101275.59;5006785;28;45370;-93
2022/12/02 08:01:16;;;;;;;;;54.50;39.75;;;;;5.01;80.50;101277.38;5001908;28;45306;-92
2022/12/02 08:03:43;;;;;;;;;49.25;39.25;;;;;5.42;80.43;101357.41;5006587;28;45309;-93
2022/12/02 08:06:09;;;;;;;;;57.00;41.75;;;;;5.44;80.10;101353.09;5002191;28;46871;-93
2022/12/02 08:08:34;;;;;;;;;57.75;41.75;;;;;4.54;80.23;101191.09;5004904;28;45311;-92
2022/12/02 08:11:09;;;;;;;;;58.00;43.00;;;;;4.30;80.68;101148.03;5011253;28;45298;-91
2022/12/02 08:13:38;;;;;;;;;60.25;41.50;;;;;5.45;80.53;101357.44;5039224;28;44817;-91
2022/12/02 08:16:10;;;;;;;;;54.00;42.75;;;;;3.79;80.27;101079.22;5014548;28;46751;-91
2022/12/02 08:18:39;;;;;;;;;49.75;39.25;;;;;5.31;80.52;101323.19;5057718;28;45273;-92
2022/12/02 08:31:12;;;;;;;;;58.75;45.25;;;;;4.26;80.01;101161.91;5043823;28;45372;-91
2022/12/02 08:33:41;;;;;;;;;68.25;46.75;;;;;3.92;81.16;101114.31;5028320;28;45283;-91
2022/12/02 08:36:33;;;;;;;;;53.25;42.75;;;;;4.12;80.71;101150.38;5031397;28;45279;-92
2022/12/02 08:39:14;;;;;;;;;60.75;45.25;;;;;5.36;80.78;101354.69;5019831;28;47251;-91
2022/12/02 08:45:35;;;;;;;;;63.50;48.00;;;;;5.38;80.39;101353.88;5034694;28;45494;-92
2022/12/02 08:51:02;;;;;;;;;61.25;45.00;;;;;5.08;80.52;101305.38;5028830;28;45388;-92
2022/12/02 08:53:35;;;;;;;;;57.00;44.25;;;;;3.78;80.51;101087.94;5016210;28;45416;-91
2022/12/02 08:56:01;;;;;;;;;52.50;41.75;;;;;4.63;80.61;101212.19;5025540;28;45273;-91
2022/12/02 08:58:29;;;;;;;;;54.75;44.00;;;;;5.40;80.61;101344.28;5029122;28;45546;-92
2022/12/02 09:00:57;;;;;;;;;63.00;45.75;;;;;4.80;80.29;101236.88;5028213;28;47168;-90
2022/12/02 09:03:41;;;;;;;;;56.75;43.25;;;;;5.40;81.08;101351.28;5020547;28;45285;-92
2022/12/02 09:06:34;;;;;;;;;57.25;39.75;;;;;5.39;80.57;101332.06;5039380;28;45326;-91
2022/12/02 09:09:16;;;;;;;;;60.50;44.50;;;;;4.44;80.28;101159.56;5035346;28;45331;-92
2022/12/02 09:11:46;;;;;;;;;49.00;39.25;;;;;3.68;80.71;101018.03;5012631;28;45637;-91
2022/12/02 09:14:34;;;;;;;;;55.75;40.75;;;;;4.85;80.31;101220.38;5014553;28;45915;-91
2022/12/02 09:20:29;;;;;;;;;45.50;36.75;;;;;5.51;80.45;101340.06;5044765;28;44824;-91
2022/12/02 09:23:06;;;;;;;;;53.25;39.75;;;;;4.69;80.91;101201.81;5013856;28;46790;-90
2022/12/02 09:25:38;;;;;;;;;62.75;45.00;;;;;5.52;79.88;101348.81;4998629;28;45330;-92
2022/12/02 09:28:24;;;;;;;;;59.25;45.25;;;;;4.37;80.11;101159.44;4992764;28;45523;-92
2022/12/02 09:31:23;;;;;;;;;61.00;43.75;;;;;5.14;80.01;101255.69;5013783;28;45049;-90
2022/12/02 09:34:03;;;;;;;;;58.00;43.50;;;;;5.19;80.90;101281.94;5032980;28;46402;-92
2022/12/02 09:36:40;;;;;;;;;61.50;45.50;;;;;4.79;80.17;101210.66;5035294;28;45422;-91
2022/12/02 09:39:12;;;;;;;;;57.00;40.50;;;;;5.24;80.12;101268.91;5055233;28;44794;-92
2022/12/02 09:41:42;;;;;;;;;60.00;46.00;;;;;4.97;80.04;101234.50;5041189;28;45321;-94
2022/12/02 09:44:16;;;;;;;;;65.25;49.75;;;;;4.42;80.53;101129.00;5038173;28;45084;-93
2022/12/02 09:46:50;;;;;;;;;64.50;44.50;;;;;4.00;80.45;101056.88;5060014;28;44844;-92
2022/12/02 09:49:19;;;;;;;;;48.25;39.25;;;;;4.57;80.66;101170.19;5054865;28;45345;-94
2022/12/02 09:51:52;;;;;;;;;63.25;48.75;;;;;4.53;80.27;101131.75;5029968;28;45242;-93
2022/12/02 09:54:37;;;;;;;;;57.25;44.50;;;;;4.72;80.38;101175.69;5029838;28;46312;-94
2022/12/02 09:57:12;;;;;;;;;62.50;45.75;;;;;5.59;79.87;101313.06;5044872;28;44622;-92
2022/12/02 09:59:41;;;;;;;;;64.75;47.00;;;;;5.61;79.82;101324.44;5021603;28;44715;-93
2022/12/02 10:05:31;;;;;;;;;50.50;40.75;;;;;4.74;80.36;101173.94;5055666;28;45185;-92
2022/12/02 10:08:33;;;;;;;;;;;;;;;;;;;;;
2022/12/02 10:11:37;;;;;;;;;57.50;44.25;;;;;4.12;79.92;101053.56;5055128;28;69632;-96
2022/12/02 10:14:17;;;;;;;;;55.00;42.25;;;;;4.92;80.27;101185.50;5052315;28;44853;-94
2022/12/02 10:16:43;;;;;;;;;58.75;43.50;;;;;4.55;80.49;101135.28;5039663;28;46892;-93
2022/12/02 10:19:15;;;;;;;;;56.50;43.75;;;;;4.54;80.46;101123.94;5052269;28;45327;-94
2022/12/02 10:21:41;;;;;;;;;51.50;41.75;;;;;5.34;79.77;101231.47;5016992;28;45275;-93
2022/12/02 10:24:08;;;;;;;;;59.50;43.00;;;;;4.34;80.47;101054.72;5031586;28;44916;-92
2022/12/02 10:26:50;;;;;;;;;65.50;48.75;;;;;5.45;80.46;101250.84;5044975;28;45476;-93
2022/12/02 10:29:24;;;;;;;;;52.00;39.25;;;;;5.70;80.22;101285.22;5037713;28;45338;-91
2022/12/02 10:31:58;;;;;;;;;59.25;47.00;;;;;5.02;80.20;101161.19;5034659;28;45360;-93
2022/12/02 10:34:24;;;;;;;;;62.75;47.00;;;;;5.45;79.98;101221.09;5028333;28;45213;-93
2022/12/02 10:37:17;;;;;;;;;62.25;48.75;;;;;5.77;79.84;101270.41;5032965;28;47095;-93
2022/12/02 10:40:07;;;;;;;;;63.75;48.75;;;;;5.75;79.44;101267.75;4969181;28;45595;-93
2022/12/02 10:42:34;;;;;;;;;72.25;52.25;;;;;5.75;80.17;101273.00;4948719;28;45534;-93
2022/12/02 10:45:16;;;;;;;;;58.00;46.25;;;;;4.35;79.67;101053.84;4964078;28;45388;-91
2022/12/02 10:47:42;;;;;;;;;62.25;43.75;;;;;5.74;79.53;101276.53;4947745;28;47652;-91
2022/12/02 10:50:23;;;;;;;;;62.50;46.00;;;;;5.01;79.66;101159.44;4937446;28;45352;-92
2022/12/02 10:56:50;;;;;;;;;;;;;;;;;;;;;
2022/12/02 10:59:23;;;;;;;;;58.75;44.50;;;;;4.71;79.59;101071.75;4928995;28;74525;-92
2022/12/02 11:02:26;;;;;;;;;59.75;41.00;;;;;5.81;79.47;101246.84;4914480;28;44875;-93
2022/12/02 11:05:37;;;;;;;;;56.25;42.25;;;;;5.80;79.88;101242.47;4908917;28;45308;-90
2022/12/02 11:09:05;;;;;;;;;60.50;46.00;;;;;5.39;79.84;101169.50;4906095;28;45412;-92
2022/12/02 11:11:46;;;;;;;;;61.50;49.00;;;;;5.00;79.84;101107.91;4911940;28;46097;-91
2022/12/02 11:14:48;;;;;;;;;;;;;;;;;;;;;
2022/12/02 11:17:15;;;;;;;;;53.75;39.75;;;;;5.65;79.93;101218.72;4943268;28;67955;-92
2022/12/02 11:20:07;;;;;;;;;62.00;49.75;;;;;4.21;79.74;100977.78;4940235;28;45035;-92
2022/12/02 11:23:18;;;;;;;;;66.00;50.25;;;;;4.55;79.04;101048.88;4935621;28;45415;-93
2022/12/02 11:25:59;;;;;;;;;62.75;43.25;;;;;4.87;79.56;101100.75;4904809;29;45399;-91
2022/12/02 11:28:28;;;;;;;;;56.75;46.25;;;;;4.94;79.65;101107.84;4904839;29;45483;-92
2022/12/02 11:38:18;;;;;;;;;66.00;47.00;;;;;4.55;79.14;101047.13;4958475;28;44689;-93
2022/12/02 11:41:03;;;;;;;;;65.25;48.25;;;;;5.66;79.65;101196.84;4950030;28;45374;-90
2022/12/02 11:43:47;;;;;;;;;65.25;52.50;;;;;5.65;79.36;101209.09;4931049;28;45646;-93
2022/12/02 11:46:17;;;;;;;;;59.25;47.00;;;;;5.24;78.95;101141.38;4945583;28;48048;-93
2022/12/02 11:48:57;;;;;;;;;68.25;50.50;;;;;4.43;78.58;101011.22;4929999;28;45677;-92
2022/12/02 11:51:48;;;;;;;;;59.25;44.25;;;;;5.63;79.00;101210.84;4945709;28;45493;-93
2022/12/02 11:54:24;;;;;;;;;64.50;47.75;;;;;5.60;78.87;101220.38;4950710;28;45346;-93
2022/12/02 11:56:53;;;;;;;;;59.75;44.50;;;;;4.48;79.40;101018.22;4949311;28;46188;-92
2022/12/02 11:59:27;;;;;;;;;56.00;42.75;;;;;3.52;78.94;100860.06;4946228;28;45479;-92
2022/12/02 12:03:00;;;;;;;;;63.00;45.00;;;;;4.32;79.11;100981.41;4991365;28;45506;-93
2022/12/02 12:05:18;;;;;;;;;57.25;44.00;;;;;3.95;79.38;100923.41;5017589;28;45179;-93
2022/12/02 12:07:49;;;;;;;;;67.25;49.00;;;;;4.85;79.16;101064.06;5027394;28;47520;-93
2022/12/02 12:14:07;;;;;;;;;62.25;47.25;;;;;5.53;79.23;101172.25;5035278;28;45373;-91
2022/12/02 12:16:41;;;;;;;;;55.75;41.25;;;;;5.12;78.82;101101.91;5010365;28;45258;-92
2022/12/02 12:19:15;;;;;;;;;53.50;42.25;;;;;5.49;78.89;101163.47;5003346;28;46862;-91
2022/12/02 12:22:02;;;;;;;;;62.75;47.00;;;;;4.33;79.58;100964.84;5013079;28;45428;-92
2022/12/02 12:31:19;;;;;;;;;59.25;43.25;;;;;4.26;79.59;100949.94;4970153;28;45397;-91
2022/12/02 12:33:49;;;;;;;;;61.75;48.00;;;;;5.39;79.62;101139.75;4956158;28;44694;-93
2022/12/02 12:36:29;;;;;;;;;63.00;47.50;;;;;5.36;80.04;101132.75;4977436;28;44803;-94
2022/12/02 12:38:57;;;;;;;;;64.75;48.50;;;;;4.43;79.53;100977.19;4955532;28;45268;-88
2022/12/02 12:41:22;;;;;;;;;56.50;43.75;;;;;4.03;80.76;100915.63;4962314;28;47058;-93
2022/12/02 12:43:49;;;;;;;;;58.25;47.75;;;;;4.75;80.17;101026.44;4954725;28;45544;-90
2022/12/02 12:48:50;;;;;;;;;55.00;44.75;;;;;4.61;79.76;101014.91;5140344;22;45560;-90
2022/12/02 12:51:18;;;;;;;;;54.75;44.00;;;;;4.25;80.49;100937.69;5054650;28;47300;-89
2022/12/02 12:53:44;;;;;;;;;59.25;42.50;;;;;3.75;80.19;100857.78;5052086;28;45682;-91
2022/12/02 12:56:09;;;;;;;;;68.50;49.50;;;;;5.07;80.68;101067.81;5051832;28;45446;-90
2022/12/02 12:58:35;;;;;;;;;60.25;45.00;;;;;4.80;80.29;101011.63;5046536;28;45413;-90
2022/12/02 13:01:00;;;;;;;;;56.00;42.50;;;;;4.70;79.53;100998.41;5038812;28;48098;-90
2022/12/02 13:03:26;;;;;;;;;65.75;50.50;;;;;5.16;80.38;101051.28;5038737;28;45506;-91
2022/12/02 13:05:55;;;;;;;;;59.25;47.25;;;;;4.23;79.90;100892.31;5072635;28;45364;-90
2022/12/02 13:08:29;;;;;;;;;61.75;43.75;;;;;5.37;80.24;101068.94;5065758;28;45237;-92
2022/12/02 13:10:55;;;;;;;;;63.00;47.00;;;;;5.22;80.20;101050.47;5033783;28;46142;-92
2022/12/02 13:13:21;;;;;;;;;60.50;44.25;;;;;5.58;80.22;101091.00;5008422;28;45426;-91
2022/12/02 13:15:46;;;;;;;;;56.75;43.00;;;;;5.64;80.04;101105.03;5048919;28;45440;-92
2022/12/02 13:18:12;;;;;;;;;58.50;44.25;;;;;4.53;79.85;100896.13;5074023;28;44821;-92
2022/12/02 13:20:37;;;;;;;;;64.25;42.25;;;;;4.64;79.50;100910.19;5056938;28;46961;-92
2022/12/02 13:23:03;;;;;;;;;60.25;44.00;;;;;5.71;79.68;101108.59;5022773;28;45309;-93
2022/12/02 13:25:29;;;;;;;;;64.00;47.00;;;;;4.54;79.79;100892.63;5032778;28;45435;-93
2022/12/02 13:27:55;;;;;;;;;60.75;45.00;;;;;4.89;79.97;100966.31;5045861;28;45577;-91
2022/12/02 13:30:22;;;;;;;;;53.25;43.50;;;;;4.69;79.72;100907.63;5064244;28;47827;-92
2022/12/02 13:32:52;;;;;;;;;56.25;44.00;;;;;5.27;79.65;101017.31;5075751;28;44921;-90
2022/12/02 13:35:25;;;;;;;;;52.00;41.50;;;;;4.04;79.71;100810.16;5084725;28;44746;-93
2022/12/02 13:37:53;;;;;;;;;51.75;44.00;;;;;4.55;79.42;100904.88;5073531;28;45208;-93
2022/12/02 13:40:19;;;;;;;;;56.75;42.75;;;;;5.63;79.49;101070.94;5064997;28;45519;-93
2022/12/02 13:42:45;;;;;;;;;42.75;39.25;;;;;5.57;80.09;101079.59;5062458;28;45344;-94
2022/12/02 13:45:12;;;;;;;;;58.25;41.25;;;;;4.75;80.21;100955.72;5070569;28;45378;-94
2022/12/02 13:47:37;;;;;;;;;62.75;46.75;;;;;4.66;79.33;100929.44;5062194;28;45430;-91
2022/12/02 13:50:05;;;;;;;;;57.75;41.75;;;;;5.29;79.90;101032.19;5064394;28;45599;-93
2022/12/02 13:52:31;;;;;;;;;58.75;45.50;;;;;4.39;79.99;100877.66;5065190;28;45204;-93
2022/12/02 13:54:56;;;;;;;;;58.50;46.50;;;;;4.56;79.73;100890.94;5068615;28;45204;-93
2022/12/02 13:57:22;;;;;;;;;64.75;44.25;;;;;4.90;79.85;100964.56;5066160;28;45325;-91
2022/12/02 13:59:47;;;;;;;;;56.75;42.75;;;;;3.92;79.83;100792.59;5063440;28;47115;-91
2022/12/02 14:02:13;;;;;;;;;63.50;45.75;;;;;5.50;79.80;101072.59;5065770;28;45731;-91
2022/12/02 14:04:38;;;;;;;;;53.75;42.25;;;;;3.74;79.32;100765.34;5070008;28;45548;-92